Silver Lake, New Jersey
Current Conditions -  °F | °C
As of 7:53 PM on Wednesday 22 Oct 2014 (Local Time) from KFWN Reporting Station
Light Rain Light Rain  
Wind Chill: 53°   Ceiling: 2800
Heat Index: 53°   Visibility: 6mi
Dew Point: 48°   Wind: 7mph
Humidity: 83%   Direction: 350°N
Pressure: 29.87"   Gusts: NA
Location:  41.1122°N, 74.4998°W
Report Text: KFWN 222353Z AUTO 35006KT 6SM -RA BKN028 OVC034 12/09 A2987 RMK AO2 SLP114 P0004 60014 T01170089 10139 20117 58009
Loading
Personal Weather Stations






























Interactive Weather Map New forecast layout! Learn more

10-Day Weather Forecast

Advertisements
Track Severe Weather on mobile